Time;durP1;ratioP1;P1;durP2;ratioP2;P2;SDS_P1;SDS_P2;PMS_P1;PMS_P2;Temp;Humidity;BMP_temperature;BMP_pressure;BME280_temperature;BME280_humidity;BME280_pressure;Samples;Min_cycle;Max_cycle;Signal;HPM_P1;HPM_P2
2022/08/24 00:00:34;;;;;;;0.20;0.20;;;;;;;25.97;49.13;94822.00;5041079;28;20210;-67
2022/08/24 00:03:01;;;;;;;0.43;0.43;;;;;;;26.00;49.15;94813.25;5069335;28;20298;-68
2022/08/24 00:05:28;;;;;;;1.97;0.50;;;;;;;25.99;49.55;94813.59;5068857;28;20188;-67
2022/08/24 00:07:56;;;;;;;0.40;0.40;;;;;;;26.07;49.04;94818.03;5051704;28;20197;-70
2022/08/24 00:10:23;;;;;;;1.33;0.77;;;;;;;26.16;48.97;94812.41;5044322;28;20638;-70
2022/08/24 00:12:51;;;;;;;0.20;0.20;;;;;;;26.32;48.67;94821.94;5061428;28;20203;-69
2022/08/24 00:15:18;;;;;;;2.57;1.80;;;;;;;26.25;48.96;94824.50;5062409;28;20620;-69
2022/08/24 00:17:45;;;;;;;0.13;0.13;;;;;;;26.02;49.02;94813.66;5057485;28;20189;-64
2022/08/24 00:20:12;;;;;;;0.40;0.40;;;;;;;26.20;49.07;94832.84;5052324;28;20246;-64
2022/08/24 00:22:39;;;;;;;21.43;1.70;;;;;;;26.21;48.75;94829.03;5040778;28;20253;-68
2022/08/24 00:25:09;;;;;;;0.30;0.30;;;;;;;26.15;49.17;94838.50;5059752;28;20208;-69
2022/08/24 00:27:36;;;;;;;0.50;0.50;;;;;;;26.25;49.04;94843.31;5051962;28;20591;-65
2022/08/24 00:30:08;;;;;;;0.20;0.20;;;;;;;26.37;48.52;94843.13;5053241;28;20231;-65
2022/08/24 00:32:36;;;;;;;0.50;0.50;;;;;;;26.29;48.71;94849.53;5067142;28;20203;-65
2022/08/24 00:35:05;;;;;;;0.50;0.50;;;;;;;26.35;48.70;94853.47;5055698;28;20299;-70
2022/08/24 00:37:33;;;;;;;0.77;0.77;;;;;;;26.11;48.98;94853.00;5031079;28;20197;-65
2022/08/24 00:39:59;;;;;;;3.03;2.40;;;;;;;26.29;48.60;94849.53;5068445;28;20273;-71
2022/08/24 00:42:26;;;;;;;1.30;0.60;;;;;;;26.40;48.40;94853.19;5042192;28;20240;-66
2022/08/24 00:44:53;;;;;;;0.40;0.40;;;;;;;26.21;49.16;94863.16;5062959;28;20227;-64
2022/08/24 00:47:32;;;;;;;1.17;1.17;;;;;;;26.37;48.90;94864.63;5060104;28;20200;-66
2022/08/24 00:50:08;;;;;;;0.57;0.57;;;;;;;26.25;49.14;94854.06;5045736;28;20205;-66
2022/08/24 00:53:00;;;;;;;0.73;0.53;;;;;;;26.41;48.71;94856.63;5052107;28;20191;-65
2022/08/24 00:55:49;;;;;;;0.63;0.63;;;;;;;26.36;48.83;94863.09;5060470;28;20189;-65
2022/08/24 00:58:26;;;;;;;0.60;0.60;;;;;;;26.39;48.94;94850.84;5055406;28;20196;-68
2022/08/24 01:00:58;;;;;;;3.03;0.67;;;;;;;26.32;48.93;94864.94;5035289;28;20196;-70
2022/08/24 01:03:26;;;;;;;0.93;0.90;;;;;;;26.19;49.12;94870.78;5034709;28;20280;-64
2022/08/24 01:05:55;;;;;;;1.30;0.67;;;;;;;26.24;49.15;94873.97;5048687;28;20200;-66
2022/08/24 01:08:22;;;;;;;0.90;0.73;;;;;;;26.26;48.96;94876.31;5034436;28;20199;-69
2022/08/24 01:10:55;;;;;;;1.67;1.57;;;;;;;26.24;49.28;94868.59;5045569;28;20235;-66
2022/08/24 01:13:24;;;;;;;0.33;0.33;;;;;;;25.97;49.88;94875.72;5060043;28;20192;-71
2022/08/24 01:15:57;;;;;;;0.20;0.20;;;;;;;25.90;49.61;94864.03;5048726;28;20208;-69
2022/08/24 01:21:27;;;;;;;0.63;0.63;;;;;;;26.08;49.44;94881.31;5034257;28;20364;-71
2022/08/24 01:23:58;;;;;;;0.27;0.27;;;;;;;26.07;49.29;94885.16;5051212;28;20201;-65
2022/08/24 01:26:31;;;;;;;0.53;0.53;;;;;;;26.25;48.81;94886.28;5037588;28;20207;-69
2022/08/24 01:29:08;;;;;;;0.77;0.77;;;;;;;25.97;49.78;94885.66;5065839;28;20207;-67
2022/08/24 01:31:36;;;;;;;1.30;1.13;;;;;;;25.61;50.32;94886.03;5057968;28;20200;-65
2022/08/24 01:34:03;;;;;;;1.13;1.03;;;;;;;25.42;50.94;94891.38;5070605;28;20191;-68
2022/08/24 01:36:37;;;;;;;0.67;0.67;;;;;;;25.34;51.42;94889.63;5050547;28;20254;-65
2022/08/24 01:39:13;;;;;;;0.50;0.50;;;;;;;24.99;51.99;94897.59;5050882;28;20691;-67
2022/08/24 01:41:41;;;;;;;1.17;0.80;;;;;;;24.48;53.17;94896.63;5032149;28;20197;-69
2022/08/24 01:44:08;;;;;;;0.73;0.73;;;;;;;24.78;52.87;94892.47;5044368;28;20224;-67
2022/08/24 01:46:35;;;;;;;0.60;0.60;;;;;;;25.16;51.94;94893.78;5050123;28;20447;-68
2022/08/24 01:49:05;;;;;;;0.60;0.60;;;;;;;25.40;51.31;94904.34;5066879;28;20679;-70
2022/08/24 01:51:33;;;;;;;1.00;1.00;;;;;;;25.28;51.74;94889.09;5052766;28;20544;-67
2022/08/24 01:54:04;;;;;;;0.40;0.40;;;;;;;25.40;51.22;94882.91;5060713;28;20287;-67
2022/08/24 01:56:32;;;;;;;0.40;0.40;;;;;;;25.68;50.57;94894.25;5057357;28;20462;-67
2022/08/24 01:59:00;;;;;;;0.57;0.57;;;;;;;25.73;50.31;94902.81;5065937;28;20780;-69
2022/08/24 02:01:30;;;;;;;1.70;1.13;;;;;;;25.69;50.17;94901.19;5060955;28;20195;-65
2022/08/24 02:04:01;;;;;;;0.73;0.73;;;;;;;25.62;50.20;94888.38;5086848;28;20823;-72
2022/08/24 02:06:29;;;;;;;0.57;0.57;;;;;;;25.74;50.13;94898.22;5069929;28;20265;-68
2022/08/24 02:08:56;;;;;;;0.73;0.73;;;;;;;25.41;51.01;94895.16;5053840;28;20228;-69
2022/08/24 02:11:24;;;;;;;1.13;1.07;;;;;;;25.36;51.14;94906.13;5060507;28;20254;-65
2022/08/24 02:13:51;;;;;;;0.73;0.73;;;;;;;25.24;51.60;94901.66;5041578;28;20205;-71
2022/08/24 02:16:19;;;;;;;0.57;0.53;;;;;;;25.30;51.27;94913.66;5061927;28;20295;-65
2022/08/24 02:18:46;;;;;;;0.40;0.40;;;;;;;25.41;51.05;94917.41;5063525;28;20200;-64
2022/08/24 02:21:14;;;;;;;1.23;0.60;;;;;;;24.84;52.69;94920.56;5072433;28;21203;-70
2022/08/24 02:23:41;;;;;;;0.47;0.47;;;;;;;24.48;53.73;94923.41;5044525;28;20451;-68
2022/08/24 02:26:10;;;;;;;0.93;0.93;;;;;;;25.02;52.61;94926.38;5048226;28;20483;-66
2022/08/24 02:28:38;;;;;;;1.97;1.00;;;;;;;24.89;53.19;94914.97;5061635;28;20226;-69
2022/08/24 02:31:07;;;;;;;1.63;0.67;;;;;;;24.74;53.62;94921.06;5052860;28;20435;-67
2022/08/24 02:33:36;;;;;;;0.87;0.87;;;;;;;24.45;54.74;94926.00;5048669;28;20671;-67
2022/08/24 02:36:05;;;;;;;1.73;1.63;;;;;;;24.16;55.14;94916.38;5065846;28;20465;-69
2022/08/24 02:38:55;;;;;;;3.13;1.77;;;;;;;23.76;57.32;94918.25;5069053;28;20441;-67
2022/08/24 02:41:24;;;;;;;1.90;1.80;;;;;;;24.27;55.94;94920.16;5046691;28;20962;-68
2022/08/24 02:43:54;;;;;;;0.93;0.93;;;;;;;25.17;53.08;94924.81;5056380;28;20995;-70
2022/08/24 02:46:24;;;;;;;2.37;1.90;;;;;;;25.25;52.98;94924.66;5050283;28;20505;-64
2022/08/24 02:48:52;;;;;;;2.73;1.33;;;;;;;25.33;52.54;94928.31;5062413;28;20195;-70
2022/08/24 02:51:40;;;;;;;1.90;1.80;;;;;;;25.53;51.62;94928.03;5041478;28;20441;-66
2022/08/24 02:54:16;;;;;;;3.20;1.37;;;;;;;25.34;52.56;94927.16;5059400;28;20501;-66
2022/08/24 02:56:46;;;;;;;10.53;1.43;;;;;;;25.34;52.61;94938.69;5052208;28;20189;-66
2022/08/24 02:59:14;;;;;;;2.13;1.70;;;;;;;25.43;52.44;94928.59;5065788;28;20219;-71
2022/08/24 03:01:41;;;;;;;0.53;0.53;;;;;;;24.79;53.79;94934.25;5065149;28;20447;-67
2022/08/24 03:04:09;;;;;;;1.07;1.00;;;;;;;24.77;54.32;94931.13;5068566;28;20620;-68
2022/08/24 03:06:36;;;;;;;0.57;0.57;;;;;;;24.99;53.23;94922.50;5068888;28;20208;-69
2022/08/24 03:09:03;;;;;;;1.20;1.10;;;;;;;24.73;54.21;94935.59;5042177;28;20206;-69
2022/08/24 03:11:33;;;;;;;1.17;1.07;;;;;;;24.64;55.24;94937.63;5068700;28;20253;-70
2022/08/24 03:14:00;;;;;;;0.87;0.87;;;;;;;25.09;53.77;94927.34;5048883;28;20209;-70
2022/08/24 03:16:28;;;;;;;0.50;0.50;;;;;;;25.07;53.73;94924.22;5037592;28;21339;-67
2022/08/24 03:18:55;;;;;;;3.57;2.53;;;;;;;25.35;52.66;94928.72;5065922;28;20196;-68
2022/08/24 03:21:25;;;;;;;3.10;1.83;;;;;;;25.37;52.53;94926.47;5052973;28;20251;-69
2022/08/24 03:23:52;;;;;;;2.13;1.73;;;;;;;25.59;51.80;94931.22;5048628;28;20201;-70
2022/08/24 03:26:19;;;;;;;0.87;0.87;;;;;;;25.43;52.63;94935.84;5048650;28;20218;-69
2022/08/24 03:28:47;;;;;;;1.17;1.13;;;;;;;25.46;52.57;94935.13;5060497;28;20299;-64
2022/08/24 03:31:16;;;;;;;1.20;1.13;;;;;;;25.29;52.59;94930.13;5049258;28;20308;-64
2022/08/24 03:33:43;;;;;;;1.70;0.93;;;;;;;25.61;51.76;94928.97;5044125;28;20618;-63
2022/08/24 03:36:10;;;;;;;2.23;1.43;;;;;;;24.96;53.21;94931.22;5067837;28;20203;-67
2022/08/24 03:38:41;;;;;;;1.87;1.20;;;;;;;25.26;52.51;94931.59;5068033;28;20295;-69
2022/08/24 03:41:09;;;;;;;1.17;1.17;;;;;;;25.28;52.29;94936.59;5050644;28;20256;-67
2022/08/24 03:43:50;;;;;;;0.80;0.80;;;;;;;25.19;52.67;94936.00;5060297;28;20227;-71
2022/08/24 03:46:22;;;;;;;4.90;2.37;;;;;;;24.98;53.08;94938.94;5058204;28;20208;-64
2022/08/24 03:48:53;;;;;;;1.23;1.13;;;;;;;25.09;52.82;94937.28;5040533;28;20686;-70
2022/08/24 03:51:24;;;;;;;1.23;1.17;;;;;;;24.97;53.38;94943.50;5047376;28;20197;-66
2022/08/24 03:53:52;;;;;;;1.20;1.10;;;;;;;24.70;54.23;94944.34;5068786;28;20220;-65
2022/08/24 03:56:22;;;;;;;0.70;0.70;;;;;;;25.34;51.93;94937.91;5045703;28;20519;-67
2022/08/24 03:58:49;;;;;;;2.23;1.47;;;;;;;25.01;52.47;94940.91;5051251;28;20546;-66
2022/08/24 04:01:16;;;;;;;0.63;0.60;;;;;;;24.77;53.20;94936.47;5046296;28;20217;-66
2022/08/24 04:03:46;;;;;;;1.60;1.30;;;;;;;24.89;52.97;94947.13;5054773;28;20812;-69
2022/08/24 04:06:16;;;;;;;0.20;0.20;;;;;;;25.58;51.60;94945.78;5050667;28;20230;-68
2022/08/24 04:08:44;;;;;;;2.70;1.43;;;;;;;25.34;51.80;94943.25;5062178;28;20199;-67
2022/08/24 04:11:14;;;;;;;0.73;0.73;;;;;;;25.34;52.47;94944.06;5070245;28;20279;-72
2022/08/24 04:13:43;;;;;;;0.27;0.27;;;;;;;25.68;51.29;94945.25;5067823;28;20607;-68
2022/08/24 04:16:12;;;;;;;1.03;0.93;;;;;;;25.86;51.29;94954.47;5054952;28;20265;-68
2022/08/24 04:18:42;;;;;;;1.40;1.30;;;;;;;25.86;51.13;94939.16;5046792;28;20683;-71
2022/08/24 04:21:18;;;;;;;0.77;0.77;;;;;;;26.05;50.25;94949.19;5044097;28;20259;-70
2022/08/24 04:23:46;;;;;;;1.50;1.40;;;;;;;26.04;50.49;94945.72;5053876;28;20742;-65
2022/08/24 04:26:16;;;;;;;0.80;0.80;;;;;;;26.03;50.43;94943.34;5042184;28;20268;-70
2022/08/24 04:29:08;;;;;;;1.40;1.30;;;;;;;26.23;49.91;94942.28;5050896;28;20623;-67
2022/08/24 04:31:41;;;;;;;0.77;0.77;;;;;;;26.22;49.87;94935.34;5047361;28;20722;-65
2022/08/24 04:34:10;;;;;;;3.23;1.27;;;;;;;26.38;49.67;94949.50;5062639;28;20372;-70
2022/08/24 04:36:42;;;;;;;0.60;0.60;;;;;;;26.22;49.56;94948.78;5046717;28;20220;-69
2022/08/24 04:39:09;;;;;;;0.70;0.70;;;;;;;26.23;50.09;94953.00;5039159;28;20645;-64
2022/08/24 04:41:56;;;;;;;3.10;2.10;;;;;;;25.89;50.14;94954.53;5057868;28;20261;-67
2022/08/24 04:44:31;;;;;;;1.67;1.57;;;;;;;25.96;50.28;94959.31;5061302;28;20214;-71
2022/08/24 04:47:00;;;;;;;1.60;1.53;;;;;;;26.40;49.54;94957.97;5047302;28;20202;-71
2022/08/24 04:49:28;;;;;;;4.00;3.70;;;;;;;26.31;49.69;94951.25;5058721;28;20548;-70
2022/08/24 04:51:55;;;;;;;0.40;0.40;;;;;;;26.28;49.50;94947.34;5043117;28;20189;-63
2022/08/24 04:54:23;;;;;;;1.57;1.47;;;;;;;25.98;50.03;94962.44;5055962;28;20231;-73
2022/08/24 04:57:05;;;;;;;1.07;0.70;;;;;;;25.25;51.83;94958.75;5039496;28;20195;-67
2022/08/24 04:59:32;;;;;;;1.93;1.50;;;;;;;26.01;50.29;94959.03;5070619;28;20207;-68
2022/08/24 05:02:00;;;;;;;1.90;0.77;;;;;;;25.66;51.04;94955.53;5040770;28;20204;-66
2022/08/24 05:04:27;;;;;;;2.60;2.50;;;;;;;25.30;52.04;94953.13;5060433;28;20204;-69
2022/08/24 05:06:57;;;;;;;3.93;3.53;;;;;;;25.81;50.97;94946.69;5056377;28;20193;-66
2022/08/24 05:09:24;;;;;;;0.60;0.60;;;;;;;25.76;51.26;94955.03;5063905;28;20647;-66
2022/08/24 05:11:52;;;;;;;2.67;1.87;;;;;;;26.22;50.32;94956.06;5057567;28;20232;-67
2022/08/24 05:14:23;;;;;;;0.90;0.67;;;;;;;25.80;51.56;94955.88;5051041;28;20224;-63
2022/08/24 05:16:55;;;;;;;0.77;0.77;;;;;;;25.89;50.91;94951.84;5052088;28;20580;-68
2022/08/24 05:19:22;;;;;;;2.17;1.83;;;;;;;25.92;51.14;94953.06;5058098;28;20238;-68
2022/08/24 05:21:50;;;;;;;0.53;0.53;;;;;;;26.18;50.59;94950.63;5059080;28;20234;-67
2022/08/24 05:24:18;;;;;;;0.83;0.83;;;;;;;26.07;50.33;94946.91;5050349;28;20678;-69
2022/08/24 05:26:46;;;;;;;1.97;1.23;;;;;;;25.80;51.11;94940.53;5066599;28;20200;-66
2022/08/24 05:29:13;;;;;;;2.27;2.03;;;;;;;25.86;50.60;94943.72;5054146;28;20184;-72
2022/08/24 05:31:45;;;;;;;0.60;0.60;;;;;;;25.41;51.37;94933.50;5057626;28;20231;-63
2022/08/24 05:34:12;;;;;;;0.90;0.90;;;;;;;25.40;51.34;94940.00;5041439;28;20258;-66
2022/08/24 05:36:41;;;;;;;1.13;1.13;;;;;;;25.26;52.42;94938.84;5066532;28;20205;-70
2022/08/24 05:39:16;;;;;;;0.30;0.30;;;;;;;26.28;50.20;94938.50;5077863;28;20200;-69
2022/08/24 05:41:50;;;;;;;12.07;1.40;;;;;;;26.25;49.89;94940.00;5050556;28;20216;-69
2022/08/24 05:44:26;;;;;;;1.50;1.03;;;;;;;25.96;50.40;94943.19;5061418;28;20206;-68
2022/08/24 05:46:59;;;;;;;2.47;1.63;;;;;;;25.68;50.76;94937.19;5065605;28;20690;-67
2022/08/24 05:49:27;;;;;;;1.93;1.33;;;;;;;26.01;50.99;94942.91;5051508;28;20762;-64
2022/08/24 05:51:54;;;;;;;0.80;0.77;;;;;;;26.58;49.08;94936.81;5052696;28;20295;-67
2022/08/24 05:54:25;;;;;;;0.30;0.30;;;;;;;26.54;49.54;94931.38;5039708;28;20200;-68
2022/08/24 05:57:06;;;;;;;0.63;0.63;;;;;;;26.62;49.33;94940.38;5050068;28;20266;-68
2022/08/24 05:59:39;;;;;;;0.80;0.80;;;;;;;26.63;49.79;94940.00;5050133;28;20198;-64
2022/08/24 06:02:15;;;;;;;0.27;0.27;;;;;;;26.63;49.65;94931.94;5066597;28;20643;-65
2022/08/24 06:04:43;;;;;;;0.67;0.43;;;;;;;26.83;48.75;94943.47;5041352;28;20727;-66
2022/08/24 06:07:12;;;;;;;0.30;0.30;;;;;;;27.17;48.47;94941.78;5057894;28;20195;-65
2022/08/24 06:09:43;;;;;;;0.73;0.73;;;;;;;27.18;47.91;94927.16;5037803;28;20204;-68
2022/08/24 06:12:10;;;;;;;2.70;0.83;;;;;;;27.11;47.61;94943.19;5037067;28;20211;-70
2022/08/24 06:14:39;;;;;;;0.37;0.37;;;;;;;27.17;47.18;94944.47;5078567;28;20579;-66
2022/08/24 06:17:08;;;;;;;0.40;0.40;;;;;;;27.23;48.38;94938.41;5063984;28;20199;-67
2022/08/24 06:19:36;;;;;;;0.30;0.30;;;;;;;26.98;49.00;94943.38;5069545;28;20662;-66
2022/08/24 06:22:03;;;;;;;1.80;1.27;;;;;;;27.32;46.79;94943.56;5056655;28;20296;-68
2022/08/24 06:27:22;;;;;;;0.57;0.57;;;;;;;27.50;46.50;94931.19;5069187;28;20199;-66
2022/08/24 06:29:58;;;;;;;0.57;0.57;;;;;;;27.65;45.55;94941.03;5061874;28;20254;-67
2022/08/24 06:32:45;;;;;;;0.40;0.40;;;;;;;27.59;46.15;94932.47;5061881;28;20562;-68
2022/08/24 06:35:22;;;;;;;0.50;0.50;;;;;;;27.83;45.87;94937.47;5056915;28;20230;-67
2022/08/24 06:37:49;;;;;;;0.47;0.47;;;;;;;27.97;45.78;94926.16;5063417;28;20205;-67
2022/08/24 06:40:20;;;;;;;0.47;0.47;;;;;;;28.01;45.35;94936.97;5055343;28;20220;-66
2022/08/24 06:42:47;;;;;;;1.80;0.87;;;;;;;27.79;46.12;94939.31;5081202;28;20239;-66
2022/08/24 06:45:21;;;;;;;0.77;0.63;;;;;;;27.98;45.48;94933.06;5060236;28;20205;-64
2022/08/24 06:47:49;;;;;;;0.50;0.50;;;;;;;28.10;45.12;94926.69;5066897;28;20205;-65
2022/08/24 06:50:18;;;;;;;2.20;0.93;;;;;;;28.25;45.18;94934.59;5054452;28;20201;-65
2022/08/24 06:52:50;;;;;;;0.57;0.57;;;;;;;28.24;44.68;94943.03;5057503;28;20204;-67
2022/08/24 06:55:17;;;;;;;0.27;0.27;;;;;;;27.20;45.78;94935.66;5050604;28;20219;-70
2022/08/24 06:57:44;;;;;;;0.40;0.40;;;;;;;27.82;45.35;94941.31;5037967;28;20241;-66
2022/08/24 07:00:18;;;;;;;0.40;0.40;;;;;;;27.97;45.02;94950.41;5064379;28;20223;-68
2022/08/24 07:02:46;;;;;;;2.10;0.73;;;;;;;28.26;45.31;94946.94;5052430;28;20327;-66
2022/08/24 07:05:13;;;;;;;0.70;0.30;;;;;;;27.93;46.13;94950.34;5045839;28;20753;-67
2022/08/24 07:08:07;;;;;;;2.43;0.90;;;;;;;28.46;43.34;94953.75;5061111;28;20215;-68
2022/08/24 07:10:35;;;;;;;0.10;0.10;;;;;;;28.32;44.08;94952.78;5063809;28;20269;-67
2022/08/24 07:13:02;;;;;;;0.73;0.73;;;;;;;28.25;43.85;94953.44;5054191;28;20224;-69
2022/08/24 07:15:30;;;;;;;0.43;0.43;;;;;;;28.39;43.69;94959.03;5064181;28;20211;-66
2022/08/24 07:18:08;;;;;;;0.57;0.57;;;;;;;28.72;44.66;94959.06;5060390;28;20195;-68
2022/08/24 07:20:41;;;;;;;0.43;0.40;;;;;;;28.95;43.29;94959.72;5066141;28;20224;-66
2022/08/24 07:23:21;;;;;;;0.67;0.67;;;;;;;28.72;42.26;94961.00;5068551;28;20200;-65
2022/08/24 07:26:10;;;;;;;3.40;1.27;;;;;;;28.50;43.73;94975.34;5060647;28;20212;-67
2022/08/24 07:29:03;;;;;;;1.07;0.60;;;;;;;28.44;44.09;94966.81;5040736;28;20301;-67
2022/08/24 07:31:39;;;;;;;0.33;0.33;;;;;;;28.88;43.54;94964.25;5052584;28;20200;-67
2022/08/24 07:34:24;;;;;;;0.40;0.40;;;;;;;29.20;43.24;94959.19;5031233;28;20210;-69
2022/08/24 07:36:51;;;;;;;0.40;0.40;;;;;;;29.05;42.19;94962.88;5037133;28;20577;-68
2022/08/24 07:39:18;;;;;;;2.47;0.90;;;;;;;29.18;41.39;94956.13;5051516;28;20201;-66
2022/08/24 07:41:46;;;;;;;0.33;0.33;;;;;;;29.27;41.66;94956.59;5067672;28;20630;-69
2022/08/24 07:44:34;;;;;;;0.40;0.40;;;;;;;29.34;40.61;94953.94;5035359;28;20679;-65
2022/08/24 07:47:03;;;;;;;1.47;1.03;;;;;;;29.33;40.40;94953.16;5053507;28;20231;-65
2022/08/24 07:49:50;;;;;;;0.47;0.47;;;;;;;29.22;41.56;94956.91;5044339;28;20467;-67
2022/08/24 07:52:18;;;;;;;0.30;0.30;;;;;;;28.92;42.68;94960.44;5046280;28;20654;-66
2022/08/24 07:54:45;;;;;;;0.50;0.50;;;;;;;28.82;42.62;94950.31;5065057;28;20245;-67
2022/08/24 07:57:12;;;;;;;0.50;0.50;;;;;;;29.56;40.62;94934.06;5046198;28;20676;-66
2022/08/24 07:59:40;;;;;;;0.40;0.40;;;;;;;29.83;40.52;94948.97;5049038;28;20668;-69
2022/08/24 08:02:08;;;;;;;0.80;0.80;;;;;;;29.59;41.30;94939.50;5063977;28;20232;-66
2022/08/24 08:04:36;;;;;;;0.43;0.43;;;;;;;29.98;41.84;94934.38;5039600;28;20205;-65
2022/08/24 08:07:06;;;;;;;0.20;0.20;;;;;;;29.59;40.51;94927.91;5044716;28;20193;-69
2022/08/24 08:09:38;;;;;;;1.13;0.93;;;;;;;29.76;42.42;94928.06;5059338;28;20204;-68
2022/08/24 08:12:07;;;;;;;0.30;0.30;;;;;;;29.71;40.82;94931.13;5064992;28;20517;-68
2022/08/24 08:14:37;;;;;;;0.47;0.47;;;;;;;30.04;39.04;94916.66;5067589;28;20210;-67
2022/08/24 08:17:05;;;;;;;0.27;0.27;;;;;;;30.06;40.07;94925.16;5067434;28;20614;-64
2022/08/24 08:19:33;;;;;;;0.40;0.40;;;;;;;30.32;39.77;94927.66;5033932;28;20219;-68
2022/08/24 08:25:19;;;;;;;0.60;0.60;;;;;;;30.20;39.05;94937.97;5052779;28;20195;-68
2022/08/24 08:27:46;;;;;;;0.67;0.57;;;;;;;30.18;39.11;94927.56;5054449;28;20199;-67
2022/08/24 08:30:14;;;;;;;0.53;0.53;;;;;;;29.65;39.90;94929.13;5067762;28;20605;-66
2022/08/24 08:32:41;;;;;;;0.90;0.90;;;;;;;30.45;38.46;94928.09;5037965;28;20205;-68
2022/08/24 08:35:09;;;;;;;2.37;1.67;;;;;;;30.62;39.10;94925.44;5060239;28;20211;-66
2022/08/24 08:37:36;;;;;;;1.30;1.17;;;;;;;30.64;38.86;94933.94;5053732;28;20607;-66
2022/08/24 08:40:11;;;;;;;1.70;1.60;;;;;;;30.79;37.43;94929.34;5075380;28;20259;-65
2022/08/24 08:42:55;;;;;;;1.37;0.90;;;;;;;31.11;37.57;94934.88;5057050;28;20338;-67
2022/08/24 08:45:28;;;;;;;0.63;0.63;;;;;;;30.77;37.29;94937.84;5071393;28;20294;-69
2022/08/24 08:48:33;;;;;;;0.33;0.33;;;;;;;30.02;39.36;94931.72;5063049;28;20612;-65
2022/08/24 08:51:32;;;;;;;0.30;0.30;;;;;;;30.62;36.99;94936.25;5047989;28;20215;-68
2022/08/24 08:54:13;;;;;;;0.50;0.50;;;;;;;30.42;36.56;94932.31;5040466;28;20204;-66
2022/08/24 08:56:54;;;;;;;0.53;0.53;;;;;;;30.09;37.30;94929.78;5053470;28;20228;-68
2022/08/24 08:59:45;;;;;;;0.70;0.70;;;;;;;30.78;36.59;94933.97;5067698;28;20228;-66
2022/08/24 09:02:41;;;;;;;0.43;0.37;;;;;;;30.61;36.53;94934.72;5050311;28;20220;-69
2022/08/24 09:05:31;;;;;;;0.57;0.57;;;;;;;31.03;36.22;94944.91;5059233;28;20227;-66
2022/08/24 09:08:10;;;;;;;0.60;0.37;;;;;;;31.82;36.01;94939.91;5072787;28;20204;-67
2022/08/24 09:10:59;;;;;;;0.40;0.40;;;;;;;32.07;34.34;94939.91;5070774;28;20196;-68
2022/08/24 09:14:00;;;;;;;0.73;0.73;;;;;;;31.56;36.63;94940.34;5071105;28;20191;-68
2022/08/24 09:17:17;;;;;;;4.10;1.07;;;;;;;30.81;36.01;94935.97;5040977;28;20839;-66
2022/08/24 09:20:05;;;;;;;6.30;0.80;;;;;;;31.54;35.16;94941.88;5049915;28;20792;-66
2022/08/24 09:23:12;;;;;;;0.30;0.30;;;;;;;31.15;35.18;94935.66;5050074;28;20308;-68
2022/08/24 09:26:01;;;;;;;2.20;1.30;;;;;;;31.65;33.95;94926.41;5037405;28;20201;-67
2022/08/24 09:28:47;;;;;;;0.43;0.43;;;;;;;31.70;34.39;94929.50;5067310;28;20326;-66
2022/08/24 09:31:23;;;;;;;0.30;0.30;;;;;;;30.97;35.08;94934.84;5032959;28;20723;-68
2022/08/24 09:33:54;;;;;;;0.40;0.40;;;;;;;31.21;35.22;94928.69;5031968;28;20193;-68
2022/08/24 09:36:43;;;;;;;0.30;0.30;;;;;;;31.44;34.05;94927.16;5055180;28;20192;-67
2022/08/24 09:39:36;;;;;;;0.50;0.50;;;;;;;31.72;34.74;94916.34;5057749;28;20206;-68
2022/08/24 09:42:23;;;;;;;0.40;0.40;;;;;;;32.55;32.22;94910.34;5051005;28;20224;-66
2022/08/24 09:45:17;;;;;;;0.30;0.30;;;;;;;32.24;34.88;94908.50;5066386;28;20200;-67
2022/08/24 09:48:02;;;;;;;0.63;0.63;;;;;;;32.04;34.26;94905.47;5037780;28;20279;-66
2022/08/24 09:51:08;;;;;;;0.80;0.70;;;;;;;32.73;33.20;94902.88;5042084;28;20296;-66
2022/08/24 09:53:59;;;;;;;0.30;0.30;;;;;;;33.19;34.29;94891.78;5070979;28;20187;-65
2022/08/24 09:56:32;;;;;;;1.20;1.07;;;;;;;32.63;33.98;94903.69;5046944;28;20229;-67
2022/08/24 09:58:59;;;;;;;0.40;0.40;;;;;;;33.20;32.90;94887.88;5069657;28;20832;-64
2022/08/24 10:01:47;;;;;;;0.40;0.40;;;;;;;32.78;34.76;94884.25;5048281;28;20217;-66
2022/08/24 10:04:41;;;;;;;0.50;0.50;;;;;;;32.40;33.25;94874.34;5044286;28;20632;-67
2022/08/24 10:07:22;;;;;;;0.50;0.50;;;;;;;32.85;33.67;94879.97;5070676;28;20675;-67
2022/08/24 10:10:08;;;;;;;1.13;0.87;;;;;;;33.05;33.43;94870.16;5070859;28;20196;-66
2022/08/24 10:12:52;;;;;;;0.40;0.40;;;;;;;32.94;33.71;94864.03;5070821;28;20215;-64
2022/08/24 10:15:36;;;;;;;0.80;0.80;;;;;;;33.36;32.40;94866.41;5070664;28;20300;-67
2022/08/24 10:18:07;;;;;;;2.23;1.13;;;;;;;33.66;31.75;94866.56;5070857;28;20198;-69
2022/08/24 10:21:21;;;;;;;0.30;0.30;;;;;;;33.72;32.04;94864.94;5070109;28;20223;-67
2022/08/24 10:24:14;;;;;;;0.53;0.53;;;;;;;33.38;31.46;94855.91;5064302;28;20291;-65
2022/08/24 10:26:51;;;;;;;0.43;0.43;;;;;;;34.06;31.65;94863.06;5050150;28;20207;-68
2022/08/24 10:30:02;;;;;;;0.43;0.43;;;;;;;33.06;31.30;94863.53;5050838;28;20207;-68
2022/08/24 10:33:14;;;;;;;0.50;0.50;;;;;;;33.84;31.01;94864.44;5061045;28;20205;-69
2022/08/24 10:36:09;;;;;;;0.40;0.40;;;;;;;34.66;30.15;94863.13;5087696;28;20651;-68
2022/08/24 10:42:07;;;;;;;0.30;0.30;;;;;;;34.66;31.29;94857.66;5037976;28;20201;-65
2022/08/24 10:44:48;;;;;;;0.67;0.67;;;;;;;34.62;31.67;94862.38;5050326;28;20307;-67
2022/08/24 10:47:21;;;;;;;0.77;0.70;;;;;;;35.53;28.96;94862.22;5040007;28;20208;-66
2022/08/24 10:50:06;;;;;;;0.90;0.90;;;;;;;35.53;29.63;94851.31;5059413;28;20300;-67
2022/08/24 10:53:01;;;;;;;0.60;0.53;;;;;;;35.63;29.93;94858.53;5041733;28;20283;-64
2022/08/24 10:55:31;;;;;;;0.40;0.40;;;;;;;35.16;30.32;94856.97;5048568;28;20201;-64
2022/08/24 10:58:20;;;;;;;0.50;0.50;;;;;;;35.28;30.17;94859.09;5043882;28;20234;-67
2022/08/24 11:00:48;;;;;;;0.30;0.30;;;;;;;35.12;31.26;94853.53;5047197;28;20262;-67
2022/08/24 11:03:21;;;;;;;0.27;0.27;;;;;;;34.63;30.77;94855.78;5044307;28;20624;-66
2022/08/24 11:05:55;;;;;;;0.57;0.57;;;;;;;34.42;31.13;94857.94;5055864;28;20201;-68
2022/08/24 11:08:32;;;;;;;0.40;0.40;;;;;;;34.34;31.27;94859.25;5055629;28;20209;-65
2022/08/24 11:11:08;;;;;;;3.43;1.63;;;;;;;34.44;32.54;94856.41;5058343;28;20542;-65
2022/08/24 11:13:38;;;;;;;0.70;0.70;;;;;;;35.14;31.04;94848.44;5045742;28;20196;-68
2022/08/24 11:16:05;;;;;;;0.60;0.60;;;;;;;35.64;30.08;94841.75;5069384;28;20608;-67
2022/08/24 11:18:48;;;;;;;0.63;0.53;;;;;;;35.18;30.99;94841.00;5064927;28;20670;-68
2022/08/24 11:21:39;;;;;;;0.60;0.60;;;;;;;34.80;30.72;94834.16;5036329;28;20281;-66
2022/08/24 11:24:40;;;;;;;0.60;0.60;;;;;;;34.33;31.92;94839.41;5047094;28;20643;-66
2022/08/24 11:27:27;;;;;;;0.50;0.50;;;;;;;34.71;31.90;94842.81;5048404;28;20319;-65
2022/08/24 11:29:59;;;;;;;0.90;0.50;;;;;;;34.09;31.12;94837.75;5048590;28;20191;-65
2022/08/24 11:32:26;;;;;;;0.70;0.63;;;;;;;34.26;31.62;94844.94;5031576;28;20219;-66
2022/08/24 11:34:52;;;;;;;0.40;0.40;;;;;;;34.12;31.63;94833.47;5028508;28;20672;-64
2022/08/24 11:37:29;;;;;;;0.40;0.40;;;;;;;34.63;31.07;94836.72;5057008;28;20238;-65
2022/08/24 11:39:57;;;;;;;1.13;0.97;;;;;;;35.08;30.95;94829.06;5044761;28;20217;-67
2022/08/24 11:42:40;;;;;;;6.47;3.73;;;;;;;35.32;29.54;94838.03;5066706;28;20243;-67
2022/08/24 11:45:13;;;;;;;8.00;2.17;;;;;;;34.39;32.59;94832.34;5048025;28;20678;-66
2022/08/24 11:47:48;;;;;;;0.53;0.37;;;;;;;34.79;33.02;94824.44;5060114;28;20200;-65
2022/08/24 11:50:18;;;;;;;0.67;0.67;;;;;;;34.74;32.03;94823.69;5032273;28;20227;-65
2022/08/24 11:52:56;;;;;;;0.30;0.30;;;;;;;34.65;32.24;94818.00;5048282;28;20192;-67
2022/08/24 11:55:57;;;;;;;0.63;0.63;;;;;;;34.66;32.16;94819.56;5044292;28;20197;-67
2022/08/24 11:58:44;;;;;;;0.60;0.60;;;;;;;34.85;31.68;94825.50;5043283;28;20231;-65
2022/08/24 12:01:22;;;;;;;0.50;0.50;;;;;;;32.99;34.03;94820.16;5068861;28;20208;-65
2022/08/24 12:04:17;;;;;;;0.57;0.57;;;;;;;36.29;30.54;94818.34;5069200;28;20689;-67
2022/08/24 12:07:18;;;;;;;0.87;0.87;;;;;;;32.73;34.28;94816.84;5042813;28;20633;-67
2022/08/24 12:10:00;;;;;;;0.50;0.50;;;;;;;33.26;33.61;94826.53;5038647;28;20658;-67
2022/08/24 12:12:42;;;;;;;0.63;0.63;;;;;;;34.22;32.59;94827.88;5059076;28;20212;-64
2022/08/24 12:15:19;;;;;;;0.33;0.33;;;;;;;34.98;31.78;94815.63;5053694;28;20295;-66
2022/08/24 12:18:01;;;;;;;0.60;0.60;;;;;;;34.89;31.52;94809.91;5057278;28;20898;-65
2022/08/24 12:20:32;;;;;;;0.30;0.30;;;;;;;34.85;32.31;94804.50;5056940;28;20249;-69